Terminal Aerodrome Forecast
Issued by NWS

Home | Current Version | Previous Version | Text Only | Print | Product List | Glossary On
Versions: 1 2 3 4 5 6 7 8 9 10 11 12 13 14 15 16 17
727
FTUS44 KMAF 202320
TAFCNM
TAF
KCNM 202320Z 2100/2124 25008G18KT P6SM SCT200
     FM210600 02007G17KT P6SM OVC120
     FM211400 05006KT P6SM OVC035=

USA.gov is the U.S. government's official web portal to all federal, state and local government web resources and services.